Time;durP1;ratioP1;P1;durP2;ratioP2;P2;SDS_P1;SDS_P2;PMS_P1;PMS_P2;Temp;Humidity;BMP_temperature;BMP_pressure;BME280_temperature;BME280_humidity;BME280_pressure;Samples;Min_cycle;Max_cycle;Signal;HPM_P1;HPM_P2
2023/09/15 00:01:44;;;;;;;1.00;1.00;;;;;;;21.42;65.78;97008.81;5064056;28;20059;-65
2023/09/15 00:04:11;;;;;;;0.80;0.80;;;;;;;21.73;65.79;97044.59;5063675;28;20136;-67
2023/09/15 00:06:39;;;;;;;0.90;0.90;;;;;;;21.77;65.93;97050.97;5064020;28;20508;-66
2023/09/15 00:09:18;;;;;;;0.88;0.88;;;;;;;21.71;66.03;97044.25;5063994;28;20052;-65
2023/09/15 00:11:47;;;;;;;0.82;0.82;;;;;;;21.64;66.31;97047.25;5063580;28;20131;-65
2023/09/15 00:14:15;;;;;;;0.90;0.90;;;;;;;21.56;66.63;97054.31;5063656;28;20388;-65
2023/09/15 00:16:43;;;;;;;1.00;1.00;;;;;;;21.46;67.06;97061.03;5064103;28;20061;-65
2023/09/15 00:19:14;;;;;;;0.95;0.95;;;;;;;21.43;67.12;97052.66;5064076;28;20045;-65
2023/09/15 00:21:47;;;;;;;0.80;0.80;;;;;;;21.41;67.25;97050.28;5063875;28;20422;-66
2023/09/15 00:24:15;;;;;;;0.90;0.90;;;;;;;21.40;67.11;97048.69;5045572;28;20064;-65
2023/09/15 00:26:43;;;;;;;0.90;0.90;;;;;;;21.31;67.34;97044.91;5063693;28;20056;-65
2023/09/15 00:29:11;;;;;;;0.90;0.90;;;;;;;21.38;67.27;97045.53;5063697;28;20052;-65
2023/09/15 00:31:39;;;;;;;1.00;1.00;;;;;;;21.39;67.07;97038.66;5063525;28;20469;-65
2023/09/15 00:34:06;;;;;;;0.88;0.88;;;;;;;20.98;67.06;96987.75;5063678;28;20048;-64
2023/09/15 00:36:33;;;;;;;0.90;0.90;;;;;;;21.36;67.35;97047.19;5063299;28;20056;-65
2023/09/15 00:39:01;;;;;;;0.90;0.90;;;;;;;21.38;67.26;97045.53;5063952;28;20053;-65
2023/09/15 00:41:28;;;;;;;0.80;0.80;;;;;;;20.93;66.89;96979.81;5083464;28;20048;-66
2023/09/15 00:43:54;;;;;;;0.90;0.90;;;;;;;21.37;67.16;97046.75;5065667;28;20055;-64
2023/09/15 00:46:22;;;;;;;0.90;0.90;;;;;;;19.25;67.60;96739.81;5083628;28;20048;-66
2023/09/15 00:48:50;;;;;;;0.80;0.80;;;;;;;20.80;68.17;97009.91;5083290;28;20044;-65
2023/09/15 00:51:17;;;;;;;0.93;0.93;;;;;;;21.13;68.03;97062.25;5065574;28;20438;-65
2023/09/15 00:53:45;;;;;;;0.90;0.90;;;;;;;20.83;68.23;97023.13;5083571;28;20056;-66
2023/09/15 00:56:13;;;;;;;0.80;0.80;;;;;;;21.15;67.84;97065.41;5065344;28;20593;-66
2023/09/15 00:58:40;;;;;;;0.80;0.80;;;;;;;20.84;68.86;97033.13;5083601;28;20053;-66
2023/09/15 01:01:08;;;;;;;0.80;0.80;;;;;;;21.03;70.11;97068.94;5083427;28;20048;-67
2023/09/15 01:03:39;;;;;;;0.90;0.90;;;;;;;20.98;70.44;97061.00;5065463;28;20052;-65
2023/09/15 01:06:08;;;;;;;0.80;0.80;;;;;;;21.00;70.76;97064.16;5083352;28;20570;-66
2023/09/15 01:08:35;;;;;;;0.90;0.90;;;;;;;21.08;69.93;97048.69;5065683;28;20052;-66
2023/09/15 01:11:04;;;;;;;0.90;0.90;;;;;;;20.67;70.14;96983.66;5083562;28;20050;-65
2023/09/15 01:13:33;;;;;;;0.80;0.80;;;;;;;21.05;69.45;97069.28;5065252;28;20550;-65
2023/09/15 01:16:12;;;;;;;0.90;0.90;;;;;;;21.04;69.05;97064.88;5083112;28;20055;-66
2023/09/15 01:18:49;;;;;;;1.00;1.00;;;;;;;21.04;69.02;97070.50;5083361;28;20052;-66
2023/09/15 01:21:29;;;;;;;0.80;0.80;;;;;;;20.89;69.29;97057.97;5083273;28;20059;-66
2023/09/15 01:24:11;;;;;;;0.95;0.95;;;;;;;20.93;69.13;97058.66;5083058;28;20056;-66
2023/09/15 01:26:47;;;;;;;0.80;0.80;;;;;;;20.62;69.04;97015.16;5064976;28;20070;-64
2023/09/15 01:29:19;;;;;;;0.90;0.90;;;;;;;21.07;68.39;97064.00;5083164;28;20108;-66
2023/09/15 01:31:50;;;;;;;0.85;0.85;;;;;;;21.09;68.10;97070.00;5064532;28;20044;-64
2023/09/15 01:34:19;;;;;;;0.80;0.80;;;;;;;20.99;68.68;97069.00;5083104;28;20048;-64
2023/09/15 01:36:46;;;;;;;0.90;0.90;;;;;;;21.11;68.26;97069.53;5083042;28;20191;-64
2023/09/15 01:39:13;;;;;;;0.90;0.90;;;;;;;21.04;67.98;97059.22;5082415;28;20702;-65
2023/09/15 01:41:40;;;;;;;0.93;0.93;;;;;;;21.21;68.06;97082.59;5065064;28;20059;-65
2023/09/15 01:44:06;;;;;;;1.00;1.00;;;;;;;21.23;67.71;97077.31;5065502;28;20056;-64
2023/09/15 01:46:33;;;;;;;0.90;0.90;;;;;;;20.82;69.85;97075.81;5066310;28;20056;-65
2023/09/15 01:49:01;;;;;;;0.80;0.80;;;;;;;20.85;69.46;97051.59;5066304;28;20396;-64
2023/09/15 01:51:30;;;;;;;0.90;0.90;;;;;;;20.94;68.94;97049.00;5066480;28;20052;-64
2023/09/15 01:53:57;;;;;;;0.88;0.88;;;;;;;21.01;69.69;97079.84;5065021;28;20057;-65
2023/09/15 01:56:28;;;;;;;0.90;0.90;;;;;;;21.03;70.16;97085.84;5065064;28;20724;-64
2023/09/15 01:58:55;;;;;;;0.80;0.80;;;;;;;21.07;70.08;97080.91;5066368;28;20045;-64
2023/09/15 02:01:22;;;;;;;0.90;0.90;;;;;;;21.09;70.23;97078.44;5066071;28;20044;-65
2023/09/15 02:03:49;;;;;;;0.90;0.90;;;;;;;21.18;69.34;97075.81;5066071;28;20049;-67
2023/09/15 02:06:16;;;;;;;0.90;0.90;;;;;;;21.15;68.84;97076.69;5065405;28;20056;-65
2023/09/15 02:08:44;;;;;;;0.90;0.90;;;;;;;20.43;70.68;97018.78;5065833;28;20055;-64
2023/09/15 02:11:12;;;;;;;0.90;0.90;;;;;;;20.75;71.49;97081.59;5064738;28;20060;-65
2023/09/15 02:13:43;;;;;;;0.90;0.90;;;;;;;20.70;70.57;97041.91;5064635;28;20049;-66
2023/09/15 02:16:11;;;;;;;0.90;0.90;;;;;;;20.98;70.23;97083.53;5065653;28;20426;-67
2023/09/15 02:18:37;;;;;;;0.90;0.90;;;;;;;20.92;69.41;97079.63;5065423;28;20056;-67
2023/09/15 02:21:04;;;;;;;0.95;0.95;;;;;;;20.97;69.65;97087.59;5065971;28;20072;-66
2023/09/15 02:23:31;;;;;;;0.88;0.88;;;;;;;21.00;69.28;97086.72;5065654;28;20735;-65
2023/09/15 02:26:02;;;;;;;0.90;0.90;;;;;;;20.88;69.73;97067.66;5065400;28;20157;-65
2023/09/15 02:28:29;;;;;;;0.90;0.90;;;;;;;20.94;70.51;97077.16;5064178;28;20146;-66
2023/09/15 02:30:56;;;;;;;0.80;0.80;;;;;;;20.91;71.02;97080.84;5065347;28;20048;-66
2023/09/15 02:33:23;;;;;;;0.98;0.98;;;;;;;20.94;70.36;97085.63;5047866;28;20056;-66
2023/09/15 02:35:50;;;;;;;1.00;1.00;;;;;;;20.33;70.52;96986.84;5064402;28;20106;-66
2023/09/15 02:38:17;;;;;;;0.82;0.82;;;;;;;20.82;70.26;97077.81;5047869;28;20518;-66
2023/09/15 02:40:43;;;;;;;1.00;1.00;;;;;;;20.50;70.50;97050.38;5078679;28;20044;-67
2023/09/15 02:43:10;;;;;;;0.90;0.90;;;;;;;20.67;70.71;97073.75;5085849;28;20052;-65
2023/09/15 02:45:37;;;;;;;0.90;0.90;;;;;;;20.52;70.90;97061.22;5085469;28;20513;-66
2023/09/15 02:48:05;;;;;;;0.90;0.90;;;;;;;20.47;71.04;97070.19;5086009;28;20140;-67
2023/09/15 02:50:32;;;;;;;0.85;0.85;;;;;;;20.13;71.51;97016.19;5085298;28;20155;-66
2023/09/15 02:52:59;;;;;;;0.90;0.90;;;;;;;20.43;72.00;97069.44;5085588;28;20052;-65
2023/09/15 02:55:26;;;;;;;0.93;0.93;;;;;;;20.23;72.01;97139.00;5084743;28;20058;-65
2023/09/15 02:57:53;;;;;;;0.90;0.90;;;;;;;20.42;72.12;97073.50;5066972;28;20086;-65
2023/09/15 03:00:20;;;;;;;0.90;0.90;;;;;;;20.39;72.32;97080.78;5085254;28;20052;-65
2023/09/15 03:02:47;;;;;;;0.80;0.80;;;;;;;20.25;72.24;97069.03;5085699;28;20056;-66
2023/09/15 03:05:15;;;;;;;0.88;0.88;;;;;;;20.24;72.27;97073.06;5085090;28;20055;-66
2023/09/15 03:07:42;;;;;;;0.88;0.88;;;;;;;20.22;72.86;97092.38;5066931;28;20054;-66
2023/09/15 03:10:10;;;;;;;0.80;0.80;;;;;;;20.07;73.71;97102.31;5085078;28;20299;-66
2023/09/15 03:12:37;;;;;;;0.90;0.90;;;;;;;20.11;73.86;97103.03;5084983;28;20056;-66
2023/09/15 03:15:07;;;;;;;0.90;0.90;;;;;;;19.61;74.82;97040.53;5084737;28;20083;-65
2023/09/15 03:17:34;;;;;;;0.80;0.80;;;;;;;19.77;77.54;97100.47;5085003;28;20048;-66
2023/09/15 03:20:13;;;;;;;0.80;0.80;;;;;;;19.26;78.48;97058.78;5066790;28;20052;-65
2023/09/15 03:22:40;;;;;;;0.80;0.80;;;;;;;19.11;79.58;97040.59;5085127;28;20056;-67
2023/09/15 03:25:08;;;;;;;0.70;0.70;;;;;;;19.40;80.22;97104.31;5084546;28;20063;-66
2023/09/15 03:27:35;;;;;;;0.80;0.80;;;;;;;19.49;80.05;97100.94;5084931;28;20079;-66
2023/09/15 03:30:04;;;;;;;0.80;0.80;;;;;;;19.46;80.08;97108.22;5085409;28;20132;-65
2023/09/15 03:32:31;;;;;;;0.90;0.90;;;;;;;19.58;79.34;97111.66;5084602;28;20079;-66
2023/09/15 03:34:58;;;;;;;0.80;0.80;;;;;;;19.64;78.51;97107.13;5062715;28;20538;-66
2023/09/15 03:37:25;;;;;;;0.80;0.80;;;;;;;19.58;78.33;97093.56;5046274;28;20122;-65
2023/09/15 03:39:52;;;;;;;0.80;0.80;;;;;;;19.68;77.70;97107.88;5066988;28;20138;-66
2023/09/15 03:42:19;;;;;;;0.88;0.88;;;;;;;19.31;76.62;97053.50;5084552;28;20109;-66
2023/09/15 03:44:46;;;;;;;0.80;0.80;;;;;;;19.67;76.57;97120.31;5084504;28;20052;-65
2023/09/15 03:47:13;;;;;;;0.90;0.90;;;;;;;19.68;76.42;97114.25;5084021;28;20052;-66
2023/09/15 03:49:40;;;;;;;0.80;0.80;;;;;;;19.68;76.03;97113.50;5084402;28;20148;-65
2023/09/15 03:52:07;;;;;;;0.80;0.80;;;;;;;19.12;75.97;97065.44;5066421;28;20136;-65
2023/09/15 03:54:33;;;;;;;0.90;0.90;;;;;;;19.28;75.72;97045.13;5065686;28;20640;-65
2023/09/15 03:57:00;;;;;;;0.88;0.88;;;;;;;19.74;75.97;97117.41;5065701;28;20338;-63
2023/09/15 03:59:27;;;;;;;0.80;0.80;;;;;;;19.81;76.14;97122.88;5066074;28;20052;-63
2023/09/15 04:01:54;;;;;;;0.70;0.70;;;;;;;19.86;75.29;97128.00;5083618;28;20037;-64
2023/09/15 04:04:21;;;;;;;0.70;0.70;;;;;;;19.94;75.14;97126.66;5066270;28;20624;-63
2023/09/15 04:06:47;;;;;;;0.90;0.90;;;;;;;19.91;75.59;97121.91;5083928;28;20054;-63
2023/09/15 04:09:14;;;;;;;0.80;0.80;;;;;;;19.85;76.06;97129.25;5083878;28;20139;-64
2023/09/15 04:11:41;;;;;;;0.90;0.90;;;;;;;19.85;76.15;97130.03;5065727;28;20147;-63
2023/09/15 04:14:08;;;;;;;0.82;0.82;;;;;;;19.77;76.90;97130.59;5065444;28;20434;-64
2023/09/15 04:16:37;;;;;;;0.80;0.80;;;;;;;19.61;77.61;97136.09;5084098;28;20048;-64
2023/09/15 04:19:04;;;;;;;0.90;0.90;;;;;;;19.24;78.46;97112.56;5065374;28;20055;-64
2023/09/15 04:21:31;;;;;;;0.82;0.82;;;;;;;19.32;79.34;97144.97;5083740;28;20044;-63
2023/09/15 04:23:58;;;;;;;0.82;0.82;;;;;;;19.30;79.71;97141.78;5083458;28;20075;-65
2023/09/15 04:26:24;;;;;;;0.85;0.85;;;;;;;19.00;79.27;97096.91;5084041;28;20063;-63
2023/09/15 04:28:51;;;;;;;0.80;0.80;;;;;;;19.20;79.27;97125.88;5065503;28;20143;-64
2023/09/15 04:31:18;;;;;;;0.80;0.80;;;;;;;19.53;78.79;97153.09;5083991;28;20083;-63
2023/09/15 04:33:45;;;;;;;0.90;0.90;;;;;;;19.52;78.88;97157.09;5083692;28;20048;-63
2023/09/15 04:36:12;;;;;;;0.80;0.80;;;;;;;18.90;79.28;97069.00;5065351;28;20466;-63
2023/09/15 04:38:39;;;;;;;0.90;0.90;;;;;;;19.63;78.44;97154.13;5083585;28;20051;-63
2023/09/15 04:41:06;;;;;;;0.90;0.90;;;;;;;19.87;77.03;97163.34;5070638;28;20055;-65
2023/09/15 04:43:32;;;;;;;0.90;0.90;;;;;;;19.87;77.07;97166.16;5063502;28;20052;-62
2023/09/15 04:45:59;;;;;;;0.80;0.80;;;;;;;19.94;76.06;97171.66;5063275;28;20110;-63
2023/09/15 04:48:26;;;;;;;0.88;0.88;;;;;;;19.98;76.10;97170.34;5063480;28;20055;-62
2023/09/15 04:50:53;;;;;;;0.80;0.80;;;;;;;19.74;76.14;97111.78;5063073;28;20045;-64
2023/09/15 04:53:20;;;;;;;0.90;0.90;;;;;;;20.02;76.09;97161.88;5063590;28;20048;-64
2023/09/15 04:55:50;;;;;;;0.80;0.80;;;;;;;20.10;75.97;97169.75;5063360;28;20585;-63
2023/09/15 04:58:17;;;;;;;0.90;0.90;;;;;;;20.16;75.51;97165.25;5061905;28;20052;-64
2023/09/15 05:00:44;;;;;;;0.80;0.80;;;;;;;20.18;74.94;97164.81;5063182;28;20044;-64
2023/09/15 05:03:11;;;;;;;0.85;0.85;;;;;;;20.29;73.79;97165.41;5063368;28;20052;-65
2023/09/15 05:05:38;;;;;;;0.90;0.90;;;;;;;20.38;73.21;97157.19;5063117;28;20114;-63
2023/09/15 05:08:05;;;;;;;0.90;0.90;;;;;;;20.42;73.48;97158.69;5063284;28;20091;-63
2023/09/15 05:10:31;;;;;;;0.90;0.90;;;;;;;19.71;72.41;97023.50;5062255;28;20051;-63
2023/09/15 05:13:00;;;;;;;0.90;0.90;;;;;;;20.48;72.26;97140.09;5062090;28;20384;-64
2023/09/15 05:15:28;;;;;;;0.80;0.80;;;;;;;20.50;71.90;97131.22;5065239;28;20080;-64
2023/09/15 05:17:55;;;;;;;0.90;0.90;;;;;;;20.69;71.86;97172.66;5065881;28;20063;-63
2023/09/15 05:20:21;;;;;;;0.90;0.90;;;;;;;20.91;71.20;97170.97;5065397;28;20376;-64
2023/09/15 05:22:48;;;;;;;0.80;0.80;;;;;;;21.10;70.98;97175.03;5047827;28;20064;-63
2023/09/15 05:25:15;;;;;;;0.90;0.90;;;;;;;21.34;69.89;97166.00;5065425;28;20447;-65
2023/09/15 05:27:42;;;;;;;1.00;1.00;;;;;;;21.51;68.90;97167.63;5065185;28;20045;-62
2023/09/15 05:30:09;;;;;;;0.80;0.80;;;;;;;21.74;67.81;97180.75;5048321;28;20044;-64
2023/09/15 05:32:39;;;;;;;0.90;0.90;;;;;;;21.78;67.31;97147.66;5066713;28;20048;-64
2023/09/15 05:35:08;;;;;;;0.90;0.90;;;;;;;22.02;65.94;97158.28;5066230;28;20081;-64
2023/09/15 05:37:35;;;;;;;0.80;0.80;;;;;;;20.86;64.98;96975.16;5068288;28;20066;-64
2023/09/15 05:40:03;;;;;;;0.90;0.90;;;;;;;22.02;64.86;97118.78;5074832;28;20056;-61
2023/09/15 05:42:29;;;;;;;1.10;1.10;;;;;;;22.23;64.64;97140.78;5069373;28;20044;-70
2023/09/15 05:44:56;;;;;;;0.98;0.98;;;;;;;21.61;64.15;97031.22;5065700;28;20114;-63
2023/09/15 05:47:23;;;;;;;1.00;1.00;;;;;;;22.33;63.63;97139.72;5065369;28;20049;-64
2023/09/15 05:49:50;;;;;;;0.90;0.90;;;;;;;22.43;63.46;97130.16;5083602;28;20059;-67
2023/09/15 05:52:17;;;;;;;0.93;0.93;;;;;;;22.67;63.67;97129.94;5067597;28;20154;-70
2023/09/15 05:54:44;;;;;;;1.08;1.08;;;;;;;23.09;63.35;97168.22;5082394;28;20533;-61
2023/09/15 05:57:10;;;;;;;0.95;0.95;;;;;;;22.79;62.99;97081.13;5076235;28;20056;-61
2023/09/15 05:59:37;;;;;;;0.93;0.93;;;;;;;23.67;61.29;97186.59;5080806;28;20143;-62
2023/09/15 06:02:04;;;;;;;1.00;1.00;;;;;;;23.12;61.14;97091.00;5066555;28;20102;-63
2023/09/15 06:04:31;;;;;;;1.00;1.00;;;;;;;23.58;61.28;97149.72;5081121;28;20055;-64
2023/09/15 06:06:58;;;;;;;1.00;1.00;;;;;;;23.74;60.69;97160.91;5062639;28;20049;-61
2023/09/15 06:09:24;;;;;;;1.00;1.00;;;;;;;23.76;59.46;97161.22;5074949;28;20052;-63
2023/09/15 06:11:51;;;;;;;1.00;1.00;;;;;;;23.96;60.09;97169.47;5077305;28;20044;-61
2023/09/15 06:14:18;;;;;;;1.10;1.10;;;;;;;24.09;58.35;97173.88;5081862;28;20470;-61
2023/09/15 06:16:44;;;;;;;1.20;1.20;;;;;;;22.49;58.80;96927.88;5065683;28;20070;-62
2023/09/15 06:19:11;;;;;;;1.10;1.10;;;;;;;24.38;59.10;97180.16;5072230;28;20048;-60
2023/09/15 06:21:38;;;;;;;1.10;1.10;;;;;;;24.08;58.36;97120.56;5082944;28;20427;-67
2023/09/15 06:24:05;;;;;;;1.10;1.10;;;;;;;24.59;57.14;97178.63;5078631;28;20062;-63
2023/09/15 06:26:33;;;;;;;1.30;1.30;;;;;;;24.65;57.29;97148.44;5080856;28;20594;-64
2023/09/15 06:29:00;;;;;;;1.30;1.30;;;;;;;24.45;56.31;97128.13;5060636;28;20896;-63
2023/09/15 06:31:26;;;;;;;1.10;1.10;;;;;;;24.81;55.90;97146.25;5075731;28;20048;-63
2023/09/15 06:33:53;;;;;;;1.40;1.40;;;;;;;24.98;55.60;97153.28;5062066;28;20056;-64
2023/09/15 06:36:21;;;;;;;1.20;1.20;;;;;;;25.25;55.30;97141.28;5065619;28;20048;-59
2023/09/15 06:38:48;;;;;;;1.35;1.35;;;;;;;25.74;53.91;97183.94;5069331;28;20048;-62
2023/09/15 06:41:15;;;;;;;1.25;1.25;;;;;;;25.83;53.83;97187.59;5077352;28;20052;-62
2023/09/15 06:43:42;;;;;;;1.30;1.30;;;;;;;26.01;52.91;97181.22;5082754;28;20059;-68
2023/09/15 06:46:10;;;;;;;1.30;1.30;;;;;;;25.75;51.80;97117.44;5080196;28;20455;-63
2023/09/15 06:48:37;;;;;;;1.40;1.40;;;;;;;25.63;50.74;97087.09;5065160;28;20048;-65
2023/09/15 06:51:04;;;;;;;1.30;1.30;;;;;;;26.40;49.74;97183.19;5081422;28;20144;-64
2023/09/15 06:53:31;;;;;;;1.40;1.40;;;;;;;26.61;49.51;97190.81;5064417;28;20063;-64
2023/09/15 06:55:58;;;;;;;1.50;1.50;;;;;;;26.73;48.75;97169.97;5080588;28;20143;-64
2023/09/15 06:58:24;;;;;;;1.52;1.52;;;;;;;26.77;49.03;97159.25;5082016;28;20120;-61
2023/09/15 07:00:55;;;;;;;1.52;1.52;;;;;;;26.58;47.72;97106.50;5083098;28;20047;-62
2023/09/15 07:03:23;;;;;;;1.50;1.50;;;;;;;27.22;46.49;97187.63;5084332;28;20132;-67
2023/09/15 07:05:50;;;;;;;1.40;1.40;;;;;;;26.86;45.99;97105.22;5081464;28;20781;-68
2023/09/15 07:08:17;;;;;;;1.40;1.40;;;;;;;27.16;46.22;97161.09;5059434;28;20060;-67
2023/09/15 07:10:44;;;;;;;1.48;1.48;;;;;;;27.46;46.58;97188.53;5076628;28;20044;-61
2023/09/15 07:13:12;;;;;;;1.33;1.33;;;;;;;27.39;46.75;97171.81;5075244;28;20495;-67
2023/09/15 07:15:38;;;;;;;1.48;1.48;;;;;;;27.35;46.29;97196.81;5080474;28;20051;-65
2023/09/15 07:18:07;;;;;;;1.60;1.60;;;;;;;27.58;45.70;97193.28;5084490;28;20593;-68
2023/09/15 07:20:34;;;;;;;1.55;1.55;;;;;;;27.77;45.62;97186.22;5083371;28;20117;-67
2023/09/15 07:23:01;;;;;;;1.60;1.60;;;;;;;27.51;46.04;97148.06;5075163;28;20135;-65
2023/09/15 07:25:29;;;;;;;1.70;1.70;;;;;;;28.14;46.07;97184.81;5047364;28;20598;-64
2023/09/15 07:27:56;;;;;;;1.60;1.60;;;;;;;28.00;45.21;97139.94;5063697;28;20503;-66
2023/09/15 07:30:23;;;;;;;1.77;1.77;;;;;;;28.01;45.36;97130.13;5045245;28;20087;-65
2023/09/15 07:32:50;;;;;;;1.52;1.52;;;;;;;27.93;45.83;97188.72;5046103;28;20052;-63
2023/09/15 07:35:17;;;;;;;1.70;1.70;;;;;;;26.72;47.29;97103.03;5059935;28;20052;-61
2023/09/15 07:37:43;;;;;;;1.55;1.55;;;;;;;27.62;46.33;97171.09;5072841;28;20052;-61
2023/09/15 07:40:10;;;;;;;1.60;1.60;;;;;;;28.01;46.60;97189.94;5082067;28;20044;-66
2023/09/15 07:42:37;;;;;;;1.55;1.55;;;;;;;27.78;46.48;97187.81;5081760;28;20047;-65
2023/09/15 07:45:04;;;;;;;1.48;1.48;;;;;;;27.32;46.88;97186.38;5081211;28;20138;-65
2023/09/15 07:47:32;;;;;;;1.60;1.60;;;;;;;26.82;46.11;97041.25;5063508;28;20048;-66
2023/09/15 07:49:59;;;;;;;1.70;1.70;;;;;;;27.45;46.04;97095.91;5081730;28;20510;-66
2023/09/15 07:52:27;;;;;;;1.65;1.65;;;;;;;27.86;45.88;97177.66;5081997;28;20129;-65
2023/09/15 07:54:54;;;;;;;1.58;1.58;;;;;;;27.98;46.13;97179.50;5081451;28;20117;-67
2023/09/15 07:57:21;;;;;;;1.70;1.70;;;;;;;27.73;45.68;97140.06;5081868;28;20224;-70
2023/09/15 07:59:48;;;;;;;1.80;1.80;;;;;;;28.05;46.27;97176.31;5083464;28;20291;-68
2023/09/15 08:02:18;;;;;;;2.00;2.00;;;;;;;27.67;45.52;97085.06;5066105;28;20083;-66
2023/09/15 08:04:45;;;;;;;1.73;1.73;;;;;;;26.32;46.18;96920.59;5083331;28;20468;-69
2023/09/15 08:07:12;;;;;;;1.73;1.73;;;;;;;28.16;46.27;97175.78;5083333;28;20123;-69
2023/09/15 08:09:38;;;;;;;1.75;1.75;;;;;;;27.92;45.52;97107.41;5083148;28;20054;-69
2023/09/15 08:12:06;;;;;;;1.60;1.60;;;;;;;28.91;44.42;97184.94;5065478;28;20063;-66
2023/09/15 08:14:32;;;;;;;1.77;1.77;;;;;;;26.81;44.60;96921.06;5065567;28;20044;-64
2023/09/15 08:16:59;;;;;;;1.65;1.65;;;;;;;28.34;44.42;97129.28;5082942;28;20139;-68
2023/09/15 08:19:27;;;;;;;1.70;1.70;;;;;;;28.10;45.09;97175.66;5065122;28;20040;-67
2023/09/15 08:21:54;;;;;;;1.52;1.52;;;;;;;27.42;44.43;97113.94;5082955;28;20060;-69
2023/09/15 08:24:21;;;;;;;1.65;1.65;;;;;;;27.77;45.14;97174.81;5082697;28;20526;-69
2023/09/15 08:26:47;;;;;;;1.58;1.58;;;;;;;27.40;45.89;97150.63;5080824;28;20048;-66
2023/09/15 08:29:14;;;;;;;1.70;1.70;;;;;;;27.53;45.01;97051.59;5095902;28;20148;-66
2023/09/15 08:31:41;;;;;;;1.50;1.50;;;;;;;28.92;43.07;97178.72;5098469;28;20072;-67
2023/09/15 08:34:08;;;;;;;1.60;1.60;;;;;;;29.00;41.62;97110.66;4862989;28;5002344;-65
2023/09/15 08:36:34;;;;;;;1.65;1.65;;;;;;;29.36;42.51;97161.66;5103166;28;20079;-66
2023/09/15 08:39:02;;;;;;;1.80;1.80;;;;;;;29.58;42.27;97159.19;5103302;28;20047;-67
2023/09/15 08:41:39;;;;;;;2.00;2.00;;;;;;;29.13;42.12;97074.88;5101696;28;20060;-70
2023/09/15 08:44:09;;;;;;;1.80;1.80;;;;;;;29.62;41.84;97156.94;5074697;28;20047;-66
2023/09/15 08:46:39;;;;;;;2.00;2.00;;;;;;;29.95;41.48;97148.94;5103431;28;20048;-68
2023/09/15 08:49:08;;;;;;;1.70;1.70;;;;;;;29.51;40.74;97056.81;5104777;28;20075;-66
2023/09/15 08:51:38;;;;;;;2.00;2.00;;;;;;;29.13;41.67;97114.81;5107579;28;20048;-66
2023/09/15 08:54:05;;;;;;;1.73;1.73;;;;;;;28.93;42.95;97134.66;5107758;28;20090;-68
2023/09/15 08:56:32;;;;;;;1.80;1.80;;;;;;;29.22;42.84;97145.34;5089236;28;20059;-68
2023/09/15 08:59:00;;;;;;;1.70;1.70;;;;;;;28.91;43.24;97147.84;5106973;28;20075;-65
2023/09/15 09:01:27;;;;;;;1.70;1.70;;;;;;;29.17;42.79;97123.19;5107457;28;20082;-65
2023/09/15 09:03:54;;;;;;;1.75;1.75;;;;;;;29.28;43.04;97146.22;5106794;28;20119;-68
2023/09/15 09:06:23;;;;;;;1.70;1.70;;;;;;;29.17;42.64;97114.63;5106867;28;20061;-67
2023/09/15 09:08:50;;;;;;;1.80;1.80;;;;;;;29.74;41.87;97106.50;5106790;28;20055;-66
2023/09/15 09:11:17;;;;;;;1.90;1.90;;;;;;;29.79;41.44;97135.16;5107389;28;20079;-68
2023/09/15 09:13:50;;;;;;;2.10;2.10;;;;;;;29.93;40.91;97137.19;5087990;28;20582;-69
2023/09/15 09:16:19;;;;;;;1.85;1.85;;;;;;;29.42;41.32;97074.03;5106375;28;20055;-66
2023/09/15 09:19:00;;;;;;;1.77;1.77;;;;;;;29.70;41.52;97135.28;5106431;28;20493;-67
2023/09/15 09:21:29;;;;;;;1.90;1.90;;;;;;;29.18;41.15;97084.81;5088915;28;20083;-68
2023/09/15 09:23:57;;;;;;;1.80;1.80;;;;;;;29.68;41.16;97126.44;5088159;28;20086;-66
2023/09/15 09:26:24;;;;;;;1.42;1.42;;;;;;;29.13;41.54;97108.34;5106265;28;20055;-70
2023/09/15 09:28:56;;;;;;;2.00;2.00;;;;;;;29.96;41.33;97124.78;5106363;28;20413;-65
2023/09/15 09:31:25;;;;;;;1.83;1.83;;;;;;;30.21;40.03;97078.38;5089255;28;20052;-67
2023/09/15 09:33:54;;;;;;;1.92;1.92;;;;;;;30.26;39.71;97086.25;5069083;28;20450;-67
2023/09/15 09:36:21;;;;;;;1.83;1.83;;;;;;;30.29;39.99;97113.03;5063423;28;20045;-65
2023/09/15 09:38:50;;;;;;;1.80;1.80;;;;;;;30.01;39.60;97075.50;5068197;28;20059;-66
2023/09/15 09:41:20;;;;;;;1.85;1.85;;;;;;;29.42;40.30;97042.66;5084516;28;20051;-69
2023/09/15 09:43:48;;;;;;;1.92;1.92;;;;;;;30.09;40.30;97088.06;5066452;28;20079;-70
2023/09/15 09:46:20;;;;;;;1.80;1.80;;;;;;;30.10;40.12;97103.94;5082438;28;20427;-65
2023/09/15 09:48:51;;;;;;;1.70;1.70;;;;;;;30.27;38.58;97024.91;5084886;28;20535;-68
2023/09/15 09:51:19;;;;;;;1.85;1.85;;;;;;;30.77;39.13;97069.22;5079428;28;20120;-60
2023/09/15 09:53:47;;;;;;;1.77;1.77;;;;;;;30.81;38.63;97098.38;5083551;28;20051;-59
2023/09/15 09:56:16;;;;;;;1.75;1.75;;;;;;;30.84;38.67;97096.59;5083817;28;20055;-63
2023/09/15 09:58:43;;;;;;;2.08;2.08;;;;;;;31.24;37.94;97093.59;5065232;28;20052;-61
2023/09/15 10:01:11;;;;;;;2.00;2.00;;;;;;;30.98;38.42;97087.88;5078787;28;20051;-64
2023/09/15 10:03:38;;;;;;;1.63;1.63;;;;;;;29.09;38.62;96782.47;5050622;28;20500;-68
2023/09/15 10:06:05;;;;;;;1.73;1.73;;;;;;;31.32;37.68;97108.25;5085539;28;20063;-68
2023/09/15 10:08:32;;;;;;;1.80;1.80;;;;;;;30.87;37.37;97064.88;5083718;28;20063;-65
2023/09/15 10:11:00;;;;;;;1.88;1.88;;;;;;;30.50;38.45;97089.66;5083300;28;20048;-65
2023/09/15 10:13:29;;;;;;;1.80;1.80;;;;;;;30.46;38.94;97094.03;5064379;28;20091;-64
2023/09/15 10:15:56;;;;;;;2.00;2.00;;;;;;;30.57;38.47;97092.09;5064981;28;20260;-65
2023/09/15 10:18:24;;;;;;;2.00;2.00;;;;;;;30.81;38.26;97100.44;5082185;28;20052;-63
2023/09/15 10:20:55;;;;;;;1.63;1.63;;;;;;;30.27;38.85;97067.78;5064912;28;20582;-68
2023/09/15 10:23:24;;;;;;;1.52;1.52;;;;;;;29.81;39.46;97095.47;5065290;28;20056;-69
2023/09/15 10:25:54;;;;;;;1.90;1.90;;;;;;;29.26;40.33;97048.91;5083679;28;20087;-67
2023/09/15 10:28:23;;;;;;;1.50;1.50;;;;;;;28.89;41.30;97088.44;5084937;28;20257;-67
2023/09/15 10:31:10;;;;;;;1.63;1.63;;;;;;;29.72;40.50;97081.28;5070045;28;20109;-69
2023/09/15 10:33:40;;;;;;;1.90;1.90;;;;;;;29.98;40.21;97064.28;5085065;28;20523;-69
2023/09/15 10:36:12;;;;;;;1.85;1.85;;;;;;;30.23;39.72;97080.75;5065708;28;20044;-63
2023/09/15 10:38:41;;;;;;;1.75;1.75;;;;;;;30.26;39.97;97063.38;5064081;28;20135;-66
2023/09/15 10:41:10;;;;;;;1.90;1.90;;;;;;;30.08;39.25;97023.63;5082758;28;20570;-70
2023/09/15 10:43:49;;;;;;;1.80;1.80;;;;;;;29.73;39.79;97077.19;5083182;28;20060;-64
2023/09/15 10:46:16;;;;;;;1.92;1.92;;;;;;;29.30;40.46;97015.22;5075453;28;20144;-68
2023/09/15 10:48:46;;;;;;;1.60;1.60;;;;;;;30.08;39.86;97062.84;5064772;28;20620;-66
2023/09/15 10:51:18;;;;;;;1.90;1.90;;;;;;;29.95;39.15;97020.34;5065670;28;20186;-64
2023/09/15 10:53:49;;;;;;;1.85;1.85;;;;;;;31.07;37.87;97069.75;5076133;28;20109;-67
2023/09/15 10:56:19;;;;;;;1.75;1.75;;;;;;;31.53;36.64;97067.59;5083567;28;20044;-66
2023/09/15 10:58:49;;;;;;;1.90;1.90;;;;;;;30.93;36.57;96991.34;5083999;28;20101;-75
2023/09/15 11:01:18;;;;;;;1.88;1.88;;;;;;;31.42;37.18;97058.13;5083831;28;20066;-64
2023/09/15 11:03:45;;;;;;;1.80;1.80;;;;;;;31.16;37.02;96992.28;5084357;28;20047;-70
2023/09/15 11:06:18;;;;;;;2.03;2.03;;;;;;;31.48;37.03;97048.28;5065538;28;20051;-67
2023/09/15 11:08:45;;;;;;;1.63;1.63;;;;;;;31.35;38.82;97045.03;5064582;28;20064;-66
2023/09/15 11:11:15;;;;;;;1.95;1.95;;;;;;;31.17;37.99;97027.44;5064175;28;20043;-72
2023/09/15 11:13:42;;;;;;;1.80;1.80;;;;;;;31.13;37.32;97021.13;5083318;28;20055;-70
2023/09/15 11:16:10;;;;;;;1.77;1.77;;;;;;;31.26;37.52;97041.53;5064967;28;20462;-64
2023/09/15 11:18:38;;;;;;;1.67;1.67;;;;;;;31.32;37.33;97039.53;5084037;28;20135;-66
2023/09/15 11:21:06;;;;;;;2.03;2.03;;;;;;;31.29;37.66;97041.31;5083671;28;20058;-64
2023/09/15 11:23:34;;;;;;;1.83;1.83;;;;;;;29.71;38.44;96839.81;5066183;28;20060;-70
2023/09/15 11:26:08;;;;;;;1.52;1.52;;;;;;;31.28;38.15;97038.97;5083200;28;20056;-66
2023/09/15 11:28:38;;;;;;;1.88;1.88;;;;;;;31.50;37.68;96994.13;5083669;28;20063;-69
2023/09/15 11:31:07;;;;;;;1.70;1.70;;;;;;;31.77;36.67;97007.06;5082766;28;20431;-64
2023/09/15 11:33:40;;;;;;;1.60;1.60;;;;;;;32.28;35.53;97029.72;5059175;28;20121;-65
2023/09/15 11:36:07;;;;;;;2.10;2.10;;;;;;;32.56;35.45;97039.25;5082881;28;20541;-64
2023/09/15 11:38:34;;;;;;;1.90;1.90;;;;;;;31.72;36.54;97027.84;5082009;28;20601;-68